PWSweather.com
Personal Weather Stations
Station Observations
KNVELKO7
Elko, NV 89801

Elko, NV 89801

Lat: 40.963233, Lon: -115.592836

Elevation: 5230

Station Type: WS-2812

Latest ConditionsUpdated 5:09:07 AM PDT Thursday, Jun 29, 2017
Currently Today's Max Today's Min Today's Average
Temperature 40.1°F4.5°C 58.1°F14.5°C 40.1°F4.5°C 49.5°F9.7°C
Dew Point 14.5°F-9.7°C 25.3°F-3.7°C 14.1°F-9.9°C 19.9°F-6.7°C
Winds 1.4 mph 2.3 kmh 5.9 mph ENE9.5 kmh ENE - 2.1 mph 3.4 kmh
Wind Gusts 1.8 mph2.9 kmh 6.9 mph11.1 kmh - -
Humidity 35% 35% 26% 31%
Pressure 30.09 in1019.0 mb 30.09 in1019.0 mb 30.04 in1017.3 mb -
Hour Temp Dew Point Humidity Winds Wind Gusts Pressure Precip Precip Rate Daily Precip Total
05:09 AM 40.1°F4.5°C 14.5°F-9.7°C 35% 1.4 mph 2.3 kmh 1.8 mph2.9 kmh 30.09 in1019.0 mb 0.00 in0.0 mm 0.00 in0.0 mm 0.00 in0.0 mm
05:04 AM 40.1°F4.5°C 14.5°F-9.7°C 35% 0.9 mph 1.4 kmh 1.6 mph2.6 kmh 30.09 in1019.0 mb 0.00 in0.0 mm 0.00 in0.0 mm 0.00 in0.0 mm
04:59 AM 40.3°F4.6°C 14.7°F-9.6°C 35% Calm Calm -- 30.09 in1019.0 mb 0.00 in0.0 mm 0.00 in0.0 mm 0.00 in0.0 mm
04:54 AM 40.7°F4.8°C 14.3°F-9.8°C 34% Calm Calm -- 30.09 in1019.0 mb 0.00 in0.0 mm 0.00 in0.0 mm 0.00 in0.0 mm
04:49 AM 40.9°F4.9°C 14.5°F-9.7°C 34% Calm Calm -- 30.08 in1018.6 mb 0.00 in0.0 mm 0.00 in0.0 mm 0.00 in0.0 mm
04:44 AM 41.2°F5.1°C 14.1°F-9.9°C 33% Calm Calm 0.9 mph1.4 kmh 30.08 in1018.6 mb 0.00 in0.0 mm 0.00 in0.0 mm 0.00 in0.0 mm
04:39 AM 41.6°F5.3°C 14.5°F-9.7°C 33% 0.2 mph 0.3 kmh 2.5 mph4.0 kmh 30.08 in1018.6 mb 0.00 in0.0 mm 0.00 in0.0 mm 0.00 in0.0 mm
04:34 AM 42.1°F5.6°C 15.0°F-9.4°C 33% 1.2 mph 1.9 kmh 4.7 mph7.6 kmh 30.08 in1018.6 mb 0.00 in0.0 mm 0.00 in0.0 mm 0.00 in0.0 mm
04:29 AM 42.5°F5.8°C 15.2°F-9.3°C 33% 4.1 mph NNE6.6 kmh NNE 5.6 mph9.0 kmh 30.08 in1018.6 mb 0.00 in0.0 mm 0.00 in0.0 mm 0.00 in0.0 mm
04:24 AM 42.8°F6.0°C 15.5°F-9.2°C 33% 4.4 mph NNE7.1 kmh NNE 5.6 mph9.0 kmh 30.08 in1018.6 mb 0.00 in0.0 mm 0.00 in0.0 mm 0.00 in0.0 mm
04:19 AM 43.0°F6.1°C 15.0°F-9.4°C 32% 5.3 mph 8.5 kmh 5.8 mph9.3 kmh 30.08 in1018.6 mb 0.00 in0.0 mm 0.00 in0.0 mm 0.00 in0.0 mm
04:14 AM 43.0°F6.1°C 15.0°F-9.4°C 32% 4.5 mph 7.2 kmh 5.8 mph9.3 kmh 30.08 in1018.6 mb 0.00 in0.0 mm 0.00 in0.0 mm 0.00 in0.0 mm
04:09 AM 43.0°F6.1°C 15.0°F-9.4°C 32% 4.9 mph 7.9 kmh 5.4 mph8.7 kmh 30.08 in1018.6 mb 0.00 in0.0 mm 0.00 in0.0 mm 0.00 in0.0 mm
04:04 AM 42.8°F6.0°C 14.9°F-9.5°C 32% 3.1 mph 5.0 kmh 3.4 mph5.5 kmh 30.08 in1018.6 mb 0.00 in0.0 mm 0.00 in0.0 mm 0.00 in0.0 mm
03:58 AM 43.4°F6.3°C 16.0°F-8.9°C 33% 2.4 mph 3.9 kmh 2.5 mph4.0 kmh 30.07 in1018.3 mb 0.00 in0.0 mm 0.00 in0.0 mm 0.00 in0.0 mm
03:53 AM 43.9°F6.6°C 16.5°F-8.6°C 33% 1.9 mph N3.1 kmh N 2.0 mph3.2 kmh 30.07 in1018.3 mb 0.00 in0.0 mm 0.00 in0.0 mm 0.00 in0.0 mm
03:48 AM 44.8°F7.1°C 17.3°F-8.2°C 33% 1.7 mph NNW2.7 kmh NNW 4.7 mph7.6 kmh 30.07 in1018.3 mb 0.00 in0.0 mm 0.00 in0.0 mm 0.00 in0.0 mm
03:43 AM 45.2°F7.3°C 17.7°F-7.9°C 33% 3.4 mph 5.5 kmh 4.7 mph7.6 kmh 30.07 in1018.3 mb 0.00 in0.0 mm 0.00 in0.0 mm 0.00 in0.0 mm
03:38 AM 45.5°F7.5°C 17.9°F-7.8°C 33% 4.0 mph 6.4 kmh 5.8 mph9.3 kmh 30.07 in1018.3 mb 0.00 in0.0 mm 0.00 in0.0 mm 0.00 in0.0 mm
03:33 AM 45.7°F7.6°C 18.1°F-7.7°C 33% 4.9 mph 7.9 kmh 5.8 mph9.3 kmh 30.07 in1018.3 mb 0.00 in0.0 mm 0.00 in0.0 mm 0.00 in0.0 mm
03:28 AM 45.5°F7.5°C 18.6°F-7.4°C 34% 3.1 mph 5.0 kmh 4.7 mph7.6 kmh 30.07 in1018.3 mb 0.00 in0.0 mm 0.00 in0.0 mm 0.00 in0.0 mm
03:23 AM 45.9°F7.7°C 18.9°F-7.3°C 34% 1.8 mph 2.9 kmh 3.8 mph6.1 kmh 30.07 in1018.3 mb 0.00 in0.0 mm 0.00 in0.0 mm 0.00 in0.0 mm
03:18 AM 46.6°F8.1°C 18.9°F-7.3°C 33% 1.8 mph NNE2.9 kmh NNE 3.8 mph6.1 kmh 30.07 in1018.3 mb 0.00 in0.0 mm 0.00 in0.0 mm 0.00 in0.0 mm
03:13 AM 47.3°F8.5°C 19.5°F-6.9°C 33% Calm Calm 0.9 mph1.4 kmh 30.07 in1018.3 mb 0.00 in0.0 mm 0.00 in0.0 mm 0.00 in0.0 mm
03:08 AM 47.9°F8.8°C 20.1°F-6.6°C 33% Calm Calm 1.6 mph2.6 kmh 30.06 in1017.9 mb 0.00 in0.0 mm 0.00 in0.0 mm 0.00 in0.0 mm
03:04 AM 48.6°F9.2°C 20.7°F-6.3°C 33% 1.3 mph NNE2.1 kmh NNE 1.6 mph2.6 kmh 30.06 in1017.9 mb 0.00 in0.0 mm 0.00 in0.0 mm 0.00 in0.0 mm
02:58 AM 49.3°F9.6°C 21.2°F-6.0°C 33% Calm Calm -- 30.06 in1017.9 mb 0.00 in0.0 mm 0.00 in0.0 mm 0.00 in0.0 mm
02:53 AM 49.7°F9.8°C 22.2°F-5.4°C 34% Calm Calm 2.7 mph4.3 kmh 30.06 in1017.9 mb 0.00 in0.0 mm 0.00 in0.0 mm 0.00 in0.0 mm
02:48 AM 50.0°F10.0°C 22.5°F-5.3°C 34% Calm Calm 2.7 mph4.3 kmh 30.06 in1017.9 mb 0.00 in0.0 mm 0.00 in0.0 mm 0.00 in0.0 mm
02:43 AM 50.4°F10.2°C 22.9°F-5.1°C 34% 1.9 mph NNE3.1 kmh NNE 4.7 mph7.6 kmh 30.06 in1017.9 mb 0.00 in0.0 mm 0.00 in0.0 mm 0.00 in0.0 mm
02:38 AM 50.6°F10.3°C 23.1°F-4.9°C 34% 2.6 mph NNE4.2 kmh NNE 4.7 mph7.6 kmh 30.06 in1017.9 mb 0.00 in0.0 mm 0.00 in0.0 mm 0.00 in0.0 mm
02:33 AM 50.0°F10.0°C 22.5°F-5.3°C 34% 3.6 mph NNE5.8 kmh NNE 6.9 mph11.1 kmh 30.06 in1017.9 mb 0.00 in0.0 mm 0.00 in0.0 mm 0.00 in0.0 mm
02:28 AM 50.0°F10.0°C 21.2°F-6.0°C 32% 5.7 mph NNE9.2 kmh NNE 6.9 mph11.1 kmh 30.06 in1017.9 mb 0.00 in0.0 mm 0.00 in0.0 mm 0.00 in0.0 mm
02:23 AM 51.3°F10.7°C 21.0°F-6.1°C 30% 4.3 mph 6.9 kmh 5.8 mph9.3 kmh 30.06 in1017.9 mb 0.00 in0.0 mm 0.00 in0.0 mm 0.00 in0.0 mm
02:18 AM 51.7°F10.9°C 22.0°F-5.6°C 31% Calm Calm -- 30.06 in1017.9 mb 0.00 in0.0 mm 0.00 in0.0 mm 0.00 in0.0 mm
02:13 AM 51.8°F11.0°C 22.2°F-5.4°C 31% Calm Calm 0.7 mph1.1 kmh 30.06 in1017.9 mb 0.00 in0.0 mm 0.00 in0.0 mm 0.00 in0.0 mm
02:08 AM 51.8°F11.0°C 21.4°F-5.9°C 30% Calm Calm 1.1 mph1.8 kmh 30.06 in1017.9 mb 0.00 in0.0 mm 0.00 in0.0 mm 0.00 in0.0 mm
02:03 AM 51.8°F11.0°C 22.2°F-5.4°C 31% 0.9 mph NNE1.4 kmh NNE 1.1 mph1.8 kmh 30.06 in1017.9 mb 0.00 in0.0 mm 0.00 in0.0 mm 0.00 in0.0 mm
01:58 AM 51.8°F11.0°C 21.4°F-5.9°C 30% Calm Calm -- 30.06 in1017.9 mb 0.00 in0.0 mm 0.00 in0.0 mm 0.00 in0.0 mm
01:53 AM 52.2°F11.2°C 21.8°F-5.7°C 30% Calm Calm 2.0 mph3.2 kmh 30.05 in1017.6 mb 0.00 in0.0 mm 0.00 in0.0 mm 0.00 in0.0 mm
01:48 AM 52.2°F11.2°C 22.4°F-5.3°C 31% 0.7 mph NNE1.1 kmh NNE 2.0 mph3.2 kmh 30.05 in1017.6 mb 0.00 in0.0 mm 0.00 in0.0 mm 0.00 in0.0 mm
01:43 AM 52.4°F11.3°C 22.6°F-5.2°C 31% 0.8 mph NE1.3 kmh NE 3.1 mph5.0 kmh 30.05 in1017.6 mb 0.00 in0.0 mm 0.00 in0.0 mm 0.00 in0.0 mm
01:38 AM 52.4°F11.3°C 21.9°F-5.6°C 30% 2.8 mph NE4.5 kmh NE 3.1 mph5.0 kmh 30.05 in1017.6 mb 0.00 in0.0 mm 0.00 in0.0 mm 0.00 in0.0 mm
01:33 AM 52.6°F11.4°C 21.2°F-6.0°C 29% Calm Calm 0.9 mph1.4 kmh 30.05 in1017.6 mb 0.00 in0.0 mm 0.00 in0.0 mm 0.00 in0.0 mm
01:28 AM 52.9°F11.6°C 21.4°F-5.9°C 29% Calm Calm 1.8 mph2.9 kmh 30.05 in1017.6 mb 0.00 in0.0 mm 0.00 in0.0 mm 0.00 in0.0 mm
01:23 AM 52.9°F11.6°C 20.5°F-6.4°C 28% 0.7 mph 1.1 kmh 1.8 mph2.9 kmh 30.05 in1017.6 mb 0.00 in0.0 mm 0.00 in0.0 mm 0.00 in0.0 mm
01:18 AM 53.3°F11.8°C 20.8°F-6.2°C 28% 0.8 mph 1.3 kmh 3.4 mph5.5 kmh 30.05 in1017.6 mb 0.00 in0.0 mm 0.00 in0.0 mm 0.00 in0.0 mm
01:13 AM 53.8°F12.1°C 21.2°F-6.0°C 28% 2.3 mph 3.7 kmh 3.4 mph5.5 kmh 30.05 in1017.6 mb 0.00 in0.0 mm 0.00 in0.0 mm 0.00 in0.0 mm
01:08 AM 54.7°F12.6°C 21.1°F-6.1°C 27% 0.4 mph 0.6 kmh 1.6 mph2.6 kmh 30.05 in1017.6 mb 0.00 in0.0 mm 0.00 in0.0 mm 0.00 in0.0 mm
01:03 AM 55.4°F13.0°C 21.7°F-5.7°C 27% 1.3 mph ENE2.1 kmh ENE 3.4 mph5.5 kmh 30.05 in1017.6 mb 0.00 in0.0 mm 0.00 in0.0 mm 0.00 in0.0 mm
12:57 AM 56.3°F13.5°C 22.4°F-5.3°C 27% 2.7 mph NE4.3 kmh NE 3.8 mph6.1 kmh 30.05 in1017.6 mb 0.00 in0.0 mm 0.00 in0.0 mm 0.00 in0.0 mm
12:52 AM 57.1°F13.9°C 22.2°F-5.4°C 26% 3.3 mph ENE5.3 kmh ENE 4.7 mph7.6 kmh 30.05 in1017.6 mb 0.00 in0.0 mm 0.00 in0.0 mm 0.00 in0.0 mm
12:47 AM 57.4°F14.1°C 22.4°F-5.3°C 26% 4.5 mph NE7.2 kmh NE 4.7 mph7.6 kmh 30.05 in1017.6 mb 0.00 in0.0 mm 0.00 in0.0 mm 0.00 in0.0 mm
12:42 AM 57.4°F14.1°C 22.4°F-5.3°C 26% 4.6 mph ENE7.4 kmh ENE 4.7 mph7.6 kmh 30.05 in1017.6 mb 0.00 in0.0 mm 0.00 in0.0 mm 0.00 in0.0 mm
12:37 AM 57.4°F14.1°C 23.4°F-4.8°C 27% 4.4 mph ENE7.1 kmh ENE 4.7 mph7.6 kmh 30.05 in1017.6 mb 0.00 in0.0 mm 0.00 in0.0 mm 0.00 in0.0 mm
12:32 AM 58.0°F14.4°C 23.9°F-4.5°C 27% 3.4 mph E5.5 kmh E 3.8 mph6.1 kmh 30.04 in1017.3 mb 0.00 in0.0 mm 0.00 in0.0 mm 0.00 in0.0 mm
12:27 AM 58.1°F14.5°C 24.0°F-4.4°C 27% 2.2 mph E3.5 kmh E 4.9 mph7.9 kmh 30.04 in1017.3 mb 0.00 in0.0 mm 0.00 in0.0 mm 0.00 in0.0 mm
12:22 AM 57.8°F14.3°C 23.7°F-4.6°C 27% 4.3 mph ENE6.9 kmh ENE 6.3 mph10.1 kmh 30.04 in1017.3 mb 0.00 in0.0 mm 0.00 in0.0 mm 0.00 in0.0 mm
12:17 AM 57.4°F14.1°C 24.4°F-4.2°C 28% 4.6 mph ENE7.4 kmh ENE 6.3 mph10.1 kmh 30.04 in1017.3 mb 0.00 in0.0 mm 0.00 in0.0 mm 0.00 in0.0 mm
12:12 AM 57.2°F14.0°C 24.2°F-4.3°C 28% 5.9 mph ENE9.5 kmh ENE 6.0 mph9.7 kmh 30.04 in1017.3 mb 0.00 in0.0 mm 0.00 in0.0 mm 0.00 in0.0 mm
12:07 AM 57.2°F14.0°C 25.1°F-3.8°C 29% 3.9 mph ENE6.3 kmh ENE 4.5 mph7.2 kmh 30.04 in1017.3 mb 0.00 in0.0 mm 0.00 in0.0 mm 0.00 in0.0 mm
12:03 AM 57.4°F14.1°C 25.3°F-3.7°C 29% 3.0 mph E4.8 kmh E 3.4 mph5.5 kmh 30.04 in1017.3 mb 0.00 in0.0 mm 0.00 in0.0 mm 0.00 in0.0 mm